Time;durP1;ratioP1;P1;durP2;ratioP2;P2;SDS_P1;SDS_P2;PMS_P1;PMS_P2;Temp;Humidity;BMP_temperature;BMP_pressure;BME280_temperature;BME280_humidity;BME280_pressure;Samples;Min_cycle;Max_cycle;Signal;HPM_P1;HPM_P2
2022/04/13 00:01:46;;;;;;;9.18;4.25;;;;;;;;;;5057583;28;20021;-72
2022/04/13 00:04:12;;;;;;;10.95;4.85;;;;;;;;;;5058749;28;20024;-72
2022/04/13 00:06:38;;;;;;;14.43;4.80;;;;;;;;;;5040322;28;20335;-72
2022/04/13 00:09:06;;;;;;;9.48;3.83;;;;;;;;;;5058634;28;20028;-72
2022/04/13 00:11:32;;;;;;;19.33;4.75;;;;;;;;;;5058076;28;20020;-72
2022/04/13 00:13:58;;;;;;;10.20;4.63;;;;;;;;;;5057192;28;20040;-72
2022/04/13 00:16:24;;;;;;;11.35;3.67;;;;;;;;;;5057127;28;20370;-72
2022/04/13 00:18:50;;;;;;;16.08;4.68;;;;;;;;;;5058317;28;20029;-72
2022/04/13 00:21:16;;;;;;;12.35;4.03;;;;;;;;;;5058349;28;20024;-72
2022/04/13 00:23:42;;;;;;;23.83;5.75;;;;;;;;;;5058541;28;20029;-73
2022/04/13 00:26:07;;;;;;;15.20;3.80;;;;;;;;;;5058168;28;20096;-72
2022/04/13 00:28:33;;;;;;;16.55;5.35;;;;;;;;;;5058215;28;20472;-73
2022/04/13 00:30:59;;;;;;;12.43;4.32;;;;;;;;;;5058101;28;20498;-72
2022/04/13 00:33:25;;;;;;;11.57;4.28;;;;;;;;;;5057910;28;20123;-72
2022/04/13 00:35:53;;;;;;;13.40;5.28;;;;;;;;;;5058078;28;20025;-72
2022/04/13 00:38:21;;;;;;;16.20;5.07;;;;;;;;;;5056750;28;20025;-72
2022/04/13 00:40:48;;;;;;;25.58;5.47;;;;;;;;;;5057955;28;20025;-73
2022/04/13 00:43:14;;;;;;;11.95;5.80;;;;;;;;;;5057914;28;20043;-72
2022/04/13 00:45:46;;;;;;;15.40;4.07;;;;;;;;;;5057770;28;20442;-72
2022/04/13 00:48:28;;;;;;;14.68;5.43;;;;;;;;;;5057672;28;20032;-72
2022/04/13 00:50:54;;;;;;;16.45;3.45;;;;;;;;;;5057644;28;20017;-72
2022/04/13 00:53:22;;;;;;;22.10;5.63;;;;;;;;;;5057590;28;20140;-72
2022/04/13 00:55:50;;;;;;;12.30;3.70;;;;;;;;;;5057780;28;20024;-75
2022/04/13 00:58:17;;;;;;;14.95;5.15;;;;;;;;;;5057427;28;20421;-73
2022/04/13 01:00:48;;;;;;;23.50;5.90;;;;;;;;;;5056783;28;20060;-73
2022/04/13 01:03:15;;;;;;;10.18;4.47;;;;;;;;;;5055834;28;20033;-72
2022/04/13 01:05:41;;;;;;;18.33;4.47;;;;;;;;;;5057253;28;20025;-72
2022/04/13 01:08:08;;;;;;;17.23;4.40;;;;;;;;;;5056947;28;20029;-72
2022/04/13 01:10:34;;;;;;;16.35;4.25;;;;;;;;;;5057375;28;20020;-72
2022/04/13 01:13:00;;;;;;;12.23;3.72;;;;;;;;;;5056895;28;20017;-72
2022/04/13 01:15:26;;;;;;;14.32;5.18;;;;;;;;;;5055338;28;20130;-72
2022/04/13 01:17:53;;;;;;;11.52;3.70;;;;;;;;;;5055853;28;20407;-73
2022/04/13 01:20:22;;;;;;;17.70;5.38;;;;;;;;;;5056753;28;20052;-73
2022/04/13 01:22:48;;;;;;;16.23;3.92;;;;;;;;;;5055316;28;20025;-73
2022/04/13 01:25:14;;;;;;;14.00;3.50;;;;;;;;;;5056185;28;20043;-73
2022/04/13 01:27:40;;;;;;;13.52;3.60;;;;;;;;;;5056090;28;20031;-73
2022/04/13 01:30:10;;;;;;;13.25;3.90;;;;;;;;;;5054807;28;20438;-73
2022/04/13 01:32:35;;;;;;;21.92;5.53;;;;;;;;;;5055577;28;20036;-73
2022/04/13 01:35:02;;;;;;;14.23;5.25;;;;;;;;;;5053390;28;20033;-73
2022/04/13 01:37:28;;;;;;;16.23;6.45;;;;;;;;;;5052854;28;20480;-73
2022/04/13 01:39:54;;;;;;;13.63;5.10;;;;;;;;;;5054901;28;20112;-73
2022/04/13 01:42:20;;;;;;;16.48;7.13;;;;;;;;;;5053548;28;20021;-73
2022/04/13 01:44:48;;;;;;;13.35;6.32;;;;;;;;;;5055286;28;20027;-73
2022/04/13 01:47:14;;;;;;;17.65;6.63;;;;;;;;;;5053916;28;20021;-73
2022/04/13 01:49:40;;;;;;;17.65;5.25;;;;;;;;;;5055831;28;20306;-73
2022/04/13 01:52:07;;;;;;;28.15;6.15;;;;;;;;;;5056321;28;20037;-72
2022/04/13 01:54:33;;;;;;;25.05;6.60;;;;;;;;;;5054455;28;20032;-73
2022/04/13 01:56:59;;;;;;;27.08;7.45;;;;;;;;;;5055945;28;20108;-73
2022/04/13 01:59:26;;;;;;;20.83;7.50;;;;;;;;;;5054630;28;20029;-73
2022/04/13 02:01:52;;;;;;;25.38;7.90;;;;;;;;;;5055465;28;20103;-73
2022/04/13 02:04:22;;;;;;;43.65;10.32;;;;;;;;;;5053971;28;20025;-74
2022/04/13 02:06:48;;;;;;;;;;;;;;;;;;5055751;28;20017;-74
2022/04/13 02:09:14;;;;;;;33.63;7.47;;;;;;;;;;5054602;28;19905;-74
2022/04/13 02:11:40;;;;;;;26.83;9.38;;;;;;;;;;5055370;28;20031;-72
2022/04/13 02:14:07;;;;;;;29.25;10.00;;;;;;;;;;5054391;28;20195;-72
2022/04/13 02:16:34;;;;;;;36.20;9.25;;;;;;;;;;5055139;28;20338;-73
2022/04/13 02:19:01;;;;;;;26.23;9.27;;;;;;;;;;5054474;28;20048;-73
2022/04/13 02:21:27;;;;;;;25.25;9.38;;;;;;;;;;5055248;28;20039;-72
2022/04/13 02:23:53;;;;;;;35.47;9.25;;;;;;;;;;5054722;28;20057;-72
2022/04/13 02:26:19;;;;;;;26.42;8.35;;;;;;;;;;5055549;28;20048;-72
2022/04/13 02:28:46;;;;;;;31.52;11.40;;;;;;;;;;5054435;28;20025;-72
2022/04/13 02:31:12;;;;;;;29.63;9.65;;;;;;;;;;5057550;28;20048;-73
2022/04/13 02:33:39;;;;;;;33.63;8.80;;;;;;;;;;5058728;28;20040;-73
2022/04/13 02:36:06;;;;;;;29.05;10.25;;;;;;;;;;5056281;28;20343;-73
2022/04/13 02:38:33;;;;;;;32.42;19.65;;;;;;;;;;5058405;28;20025;-74
2022/04/13 02:40:59;;;;;;;39.25;16.52;;;;;;;;;;5057009;28;20021;-74
2022/04/13 02:43:28;;;;;;;42.20;16.38;;;;;;;;;;5058397;28;20032;-74
2022/04/13 02:45:59;;;;;;;39.17;17.40;;;;;;;;;;5056706;28;20106;-74
2022/04/13 02:48:25;;;;;;;33.42;12.45;;;;;;;;;;5058007;28;20020;-73
2022/04/13 02:50:52;;;;;;;42.42;12.90;;;;;;;;;;5039395;28;20064;-73
2022/04/13 02:53:18;;;;;;;45.63;13.77;;;;;;;;;;5056680;28;20037;-74
2022/04/13 02:55:44;;;;;;;48.92;12.77;;;;;;;;;;5055505;28;20083;-74
2022/04/13 02:58:10;;;;;;;38.63;10.45;;;;;;;;;;5055996;28;20058;-75
2022/04/13 03:00:37;;;;;;;29.88;7.35;;;;;;;;;;5038156;28;20429;-73
2022/04/13 03:03:05;;;;;;;19.15;4.80;;;;;;;;;;5053777;28;20418;-75
2022/04/13 03:05:34;;;;;;;25.83;6.20;;;;;;;;;;5037623;28;20111;-74
2022/04/13 03:08:00;;;;;;;17.48;5.15;;;;;;;;;;5055040;28;20082;-74
2022/04/13 03:10:26;;;;;;;27.67;7.60;;;;;;;;;;5056061;28;20059;-74
2022/04/13 03:12:52;;;;;;;19.40;6.50;;;;;;;;;;5054467;28;20361;-74
2022/04/13 03:15:22;;;;;;;29.95;5.97;;;;;;;;;;5056624;28;20345;-72
2022/04/13 03:17:49;;;;;;;29.08;5.88;;;;;;;;;;5057068;28;20107;-74
2022/04/13 03:26:59;;;;;;;25.00;5.22;;;;;;;;;;5056419;28;20410;-75
2022/04/13 03:29:25;;;;;;;19.35;5.50;;;;;;;;;;5055861;28;20099;-74
2022/04/13 03:31:51;;;;;;;16.58;7.82;;;;;;;;;;5055850;28;20111;-74
2022/04/13 03:34:20;;;;;;;17.23;4.18;;;;;;;;;;5057286;28;20383;-75
2022/04/13 03:36:47;;;;;;;14.10;5.10;;;;;;;;;;5056577;28;20406;-74
2022/04/13 03:39:14;;;;;;;28.02;5.40;;;;;;;;;;5055011;28;20027;-73
2022/04/13 03:41:40;;;;;;;15.40;5.05;;;;;;;;;;5038165;28;20395;-74
2022/04/13 03:44:06;;;;;;;15.70;4.25;;;;;;;;;;5055927;28;20111;-75
2022/04/13 03:46:32;;;;;;;22.95;7.60;;;;;;;;;;5056060;28;20021;-75
2022/04/13 03:48:59;;;;;;;42.40;8.98;;;;;;;;;;5038577;28;20024;-76
2022/04/13 03:51:25;;;;;;;15.82;4.80;;;;;;;;;;5057310;28;20307;-74
2022/04/13 03:53:51;;;;;;;20.30;5.25;;;;;;;;;;5055749;28;20037;-73
2022/04/13 03:56:17;;;;;;;17.45;5.25;;;;;;;;;;5055628;28;20024;-73
2022/04/13 03:58:43;;;;;;;18.10;5.78;;;;;;;;;;5054537;28;20426;-74
2022/04/13 04:01:10;;;;;;;16.45;5.82;;;;;;;;;;5056271;28;20024;-75
2022/04/13 04:03:36;;;;;;;13.77;4.32;;;;;;;;;;5056156;28;20454;-75
2022/04/13 04:06:03;;;;;;;22.10;9.25;;;;;;;;;;5054664;28;20061;-74
2022/04/13 04:08:29;;;;;;;15.65;4.57;;;;;;;;;;5056366;28;20086;-77
2022/04/13 04:10:55;;;;;;;14.75;4.75;;;;;;;;;;5055961;28;20347;-75
2022/04/13 04:13:22;;;;;;;20.52;6.63;;;;;;;;;;5055792;28;20048;-75
2022/04/13 04:15:48;;;;;;;24.88;5.93;;;;;;;;;;5053892;28;20391;-75
2022/04/13 04:18:15;;;;;;;29.80;7.10;;;;;;;;;;5037820;28;20032;-76
2022/04/13 04:20:41;;;;;;;28.90;9.02;;;;;;;;;;5054506;28;20052;-76
2022/04/13 04:23:07;;;;;;;13.32;6.95;;;;;;;;;;5054630;28;20103;-75
2022/04/13 04:25:33;;;;;;;20.58;5.60;;;;;;;;;;5051853;28;20017;-75
2022/04/13 04:28:00;;;;;;;11.75;5.95;;;;;;;;;;5053421;28;20017;-76
2022/04/13 04:30:26;;;;;;;11.25;5.35;;;;;;;;;;5054645;28;20021;-76
2022/04/13 04:32:52;;;;;;;21.85;7.28;;;;;;;;;;5052200;28;20012;-75
2022/04/13 04:35:19;;;;;;;23.65;9.60;;;;;;;;;;5053475;28;20044;-76
2022/04/13 04:37:45;;;;;;;12.95;4.45;;;;;;;;;;5054524;28;20024;-75
2022/04/13 04:40:11;;;;;;;19.63;5.53;;;;;;;;;;5053251;28;20028;-76
2022/04/13 04:42:47;;;;;;;10.95;4.65;;;;;;;;;;5052607;28;20021;-75
2022/04/13 04:45:19;;;;;;;14.02;6.70;;;;;;;;;;5055410;28;20388;-76
2022/04/13 04:47:46;;;;;;;15.32;7.20;;;;;;;;;;5053555;28;20044;-76
2022/04/13 04:50:12;;;;;;;14.23;5.18;;;;;;;;;;5054457;28;20013;-76
2022/04/13 04:52:45;;;;;;;22.02;4.50;;;;;;;;;;5053937;28;20083;-75
2022/04/13 04:55:13;;;;;;;12.23;5.38;;;;;;;;;;5054142;28;20115;-75
2022/04/13 04:57:40;;;;;;;12.27;4.28;;;;;;;;;;5036677;28;20013;-75
2022/04/13 05:00:18;;;;;;;22.23;5.43;;;;;;;;;;5053264;28;20315;-74
2022/04/13 05:02:49;;;;;;;11.93;4.63;;;;;;;;;;5054316;28;20021;-74
2022/04/13 05:05:15;;;;;;;13.27;4.85;;;;;;;;;;5037304;28;20024;-74
2022/04/13 05:07:42;;;;;;;15.23;4.30;;;;;;;;;;5055300;28;20414;-73
2022/04/13 05:10:08;;;;;;;10.65;3.53;;;;;;;;;;5037004;28;20032;-74
2022/04/13 05:12:42;;;;;;;20.92;5.60;;;;;;;;;;5056257;28;20429;-75
2022/04/13 05:15:09;;;;;;;21.60;5.20;;;;;;;;;;5038245;28;20077;-74
2022/04/13 05:17:37;;;;;;;18.90;4.57;;;;;;;;;;5054086;28;20021;-74
2022/04/13 05:20:04;;;;;;;17.77;5.75;;;;;;;;;;5036640;28;20075;-74
2022/04/13 05:22:31;;;;;;;13.65;4.70;;;;;;;;;;5036679;28;20021;-75
2022/04/13 05:25:02;;;;;;;18.33;4.72;;;;;;;;;;5036511;28;20155;-74
2022/04/13 05:27:28;;;;;;;21.70;5.75;;;;;;;;;;5053870;28;20017;-74
2022/04/13 05:29:55;;;;;;;26.17;6.90;;;;;;;;;;5054057;28;20083;-74
2022/04/13 05:32:23;;;;;;;16.73;3.92;;;;;;;;;;5046461;28;20031;-74
2022/04/13 05:34:58;;;;;;;12.77;4.38;;;;;;;;;;5040632;28;20124;-74
2022/04/13 05:37:29;;;;;;;17.38;4.70;;;;;;;;;;5070307;28;20381;-74
2022/04/13 05:39:56;;;;;;;12.70;3.75;;;;;;;;;;5037986;28;20437;-75
2022/04/13 05:42:23;;;;;;;18.95;5.63;;;;;;;;;;5038233;28;20017;-74
2022/04/13 05:44:51;;;;;;;18.77;4.75;;;;;;;;;;5038977;28;20071;-73
2022/04/13 05:47:17;;;;;;;10.50;4.97;;;;;;;;;;5037891;28;20025;-75
2022/04/13 05:49:44;;;;;;;13.95;5.45;;;;;;;;;;5052798;28;20456;-75
2022/04/13 05:52:10;;;;;;;12.55;4.40;;;;;;;;;;5036531;28;20068;-77
2022/04/13 05:54:37;;;;;;;17.05;5.38;;;;;;;;;;5052389;28;20037;-76
2022/04/13 05:57:03;;;;;;;15.75;7.10;;;;;;;;;;5054422;28;20414;-77
2022/04/13 05:59:29;;;;;;;15.27;4.60;;;;;;;;;;5054563;28;20342;-77
2022/04/13 06:01:56;;;;;;;18.20;4.45;;;;;;;;;;5054743;28;20028;-76
2022/04/13 06:04:23;;;;;;;17.48;5.07;;;;;;;;;;5054315;28;20334;-76
2022/04/13 06:06:50;;;;;;;19.40;5.47;;;;;;;;;;5060766;28;20017;-75
2022/04/13 06:09:16;;;;;;;14.85;4.80;;;;;;;;;;5041343;28;20017;-75
2022/04/13 06:11:42;;;;;;;14.57;5.78;;;;;;;;;;5056589;28;20116;-76
2022/04/13 06:14:08;;;;;;;13.65;4.55;;;;;;;;;;5081539;22;20102;-77
2022/04/13 06:16:34;;;;;;;20.05;5.68;;;;;;;;;;5077298;28;20457;-76
2022/04/13 06:19:00;;;;;;;12.60;5.05;;;;;;;;;;5076613;28;20103;-77
2022/04/13 06:21:27;;;;;;;21.80;6.28;;;;;;;;;;5075549;28;20473;-76
2022/04/13 06:23:55;;;;;;;18.85;5.40;;;;;;;;;;5077348;28;20051;-76
2022/04/13 06:26:22;;;;;;;18.92;5.47;;;;;;;;;;5077173;28;20042;-75
2022/04/13 06:28:49;;;;;;;19.25;4.32;;;;;;;;;;5078437;28;20025;-75
2022/04/13 06:31:15;;;;;;;38.15;6.60;;;;;;;;;;5093192;28;20024;-75
2022/04/13 06:33:41;;;;;;;12.90;5.07;;;;;;;;;;5077414;28;20418;-74
2022/04/13 06:36:08;;;;;;;17.77;4.72;;;;;;;;;;5076521;28;20028;-74
2022/04/13 06:38:35;;;;;;;14.57;4.50;;;;;;;;;;5077017;28;20422;-74
2022/04/13 06:41:01;;;;;;;19.05;4.82;;;;;;;;;;5081372;28;20391;-73
2022/04/13 06:43:30;;;;;;;19.08;6.82;;;;;;;;;;5078381;28;20256;-75
2022/04/13 06:45:56;;;;;;;20.20;4.82;;;;;;;;;;5077272;28;20155;-75
2022/04/13 06:48:22;;;;;;;16.05;4.10;;;;;;;;;;5077194;28;20021;-73
2022/04/13 06:50:48;;;;;;;16.08;4.28;;;;;;;;;;5077497;28;20074;-75
2022/04/13 06:53:15;;;;;;;15.02;3.95;;;;;;;;;;5092414;28;20020;-74
2022/04/13 06:55:41;;;;;;;18.40;5.03;;;;;;;;;;5077223;28;20032;-74
2022/04/13 06:58:07;;;;;;;16.23;4.05;;;;;;;;;;5078959;28;20016;-73
2022/04/13 07:00:34;;;;;;;18.10;5.50;;;;;;;;;;5095386;28;20032;-74
2022/04/13 07:03:00;;;;;;;13.50;3.95;;;;;;;;;;5078270;28;20016;-74
2022/04/13 07:05:26;;;;;;;15.85;4.40;;;;;;;;;;5078170;28;20517;-76
2022/04/13 07:07:58;;;;;;;17.45;5.45;;;;;;;;;;5077857;28;20457;-73
2022/04/13 07:10:28;;;;;;;25.13;6.57;;;;;;;;;;5093711;28;20032;-74
2022/04/13 07:12:54;;;;;;;11.93;4.43;;;;;;;;;;5077393;28;20372;-73
2022/04/13 07:15:20;;;;;;;19.05;4.57;;;;;;;;;;5076931;28;20349;-73
2022/04/13 07:17:47;;;;;;;15.55;5.30;;;;;;;;;;5076710;28;20013;-74
2022/04/13 07:20:13;;;;;;;18.58;5.45;;;;;;;;;;5077905;28;20020;-74
2022/04/13 07:22:46;;;;;;;40.42;6.30;;;;;;;;;;5075467;28;20024;-74
2022/04/13 07:25:13;;;;;;;24.15;5.00;;;;;;;;;;5075171;28;20046;-75
2022/04/13 07:27:39;;;;;;;18.85;5.10;;;;;;;;;;5074920;28;20020;-74
2022/04/13 07:30:07;;;;;;;19.48;6.07;;;;;;;;;;5074133;28;20345;-75
2022/04/13 07:32:33;;;;;;;24.20;7.63;;;;;;;;;;5074362;28;20103;-74
2022/04/13 07:34:59;;;;;;;14.73;6.13;;;;;;;;;;5075621;28;20032;-74
2022/04/13 07:37:25;;;;;;;19.73;5.13;;;;;;;;;;5076286;28;20028;-73
2022/04/13 07:39:53;;;;;;;15.00;4.95;;;;;;;;;;5076611;28;20020;-73
2022/04/13 07:42:23;;;;;;;17.13;6.22;;;;;;;;;;5077199;28;20092;-75
2022/04/13 07:44:49;;;;;;;20.13;5.00;;;;;;;;;;5090661;28;20379;-74
2022/04/13 07:47:15;;;;;;;19.10;4.50;;;;;;;;;;5075017;28;20469;-72
2022/04/13 07:49:41;;;;;;;19.10;5.72;;;;;;;;;;5090820;28;20019;-73
2022/04/13 07:52:07;;;;;;;14.43;3.67;;;;;;;;;;5071559;28;20361;-74
2022/04/13 07:54:34;;;;;;;19.25;5.18;;;;;;;;;;5092736;28;20032;-74
2022/04/13 07:56:59;;;;;;;16.85;4.90;;;;;;;;;;5092830;28;20016;-74
2022/04/13 07:59:27;;;;;;;16.02;5.25;;;;;;;;;;5092665;28;20035;-75
2022/04/13 08:01:53;;;;;;;19.52;4.70;;;;;;;;;;5076624;28;20067;-74
2022/04/13 08:04:20;;;;;;;17.55;4.18;;;;;;;;;;5076585;28;20016;-75
2022/04/13 08:06:46;;;;;;;18.20;4.07;;;;;;;;;;5077300;28;20020;-74
2022/04/13 08:09:12;;;;;;;13.23;3.58;;;;;;;;;;5059009;28;20043;-74
2022/04/13 08:11:38;;;;;;;25.40;5.22;;;;;;;;;;5092678;28;20021;-74
2022/04/13 08:14:04;;;;;;;29.35;6.53;;;;;;;;;;5076182;28;20036;-74
2022/04/13 08:16:30;;;;;;;28.13;6.05;;;;;;;;;;5077789;28;20021;-74
2022/04/13 08:18:56;;;;;;;19.35;4.43;;;;;;;;;;5077462;28;20027;-73
2022/04/13 08:21:22;;;;;;;18.30;5.03;;;;;;;;;;5077447;28;20325;-74
2022/04/13 08:23:50;;;;;;;19.17;6.18;;;;;;;;;;5076276;28;20027;-74
2022/04/13 08:26:19;;;;;;;21.38;5.43;;;;;;;;;;5076656;28;20346;-74
2022/04/13 08:28:45;;;;;;;27.98;6.25;;;;;;;;;;5076525;28;20035;-74
2022/04/13 08:31:11;;;;;;;21.15;4.63;;;;;;;;;;5075754;28;20345;-74
2022/04/13 08:33:37;;;;;;;15.57;4.78;;;;;;;;;;5076471;28;20036;-74
2022/04/13 08:36:03;;;;;;;15.40;4.78;;;;;;;;;;5077061;28;20020;-75
2022/04/13 08:38:32;;;;;;;28.85;5.53;;;;;;;;;;5092262;28;20021;-75
2022/04/13 08:41:01;;;;;;;19.92;6.93;;;;;;;;;;5074192;28;20099;-74
2022/04/13 08:43:33;;;;;;;33.97;7.18;;;;;;;;;;5076501;28;20021;-74
2022/04/13 08:46:05;;;;;;;27.13;5.68;;;;;;;;;;5075165;28;20052;-75
2022/04/13 08:48:32;;;;;;;38.25;6.60;;;;;;;;;;5075862;28;20099;-73
2022/04/13 08:50:59;;;;;;;19.33;6.03;;;;;;;;;;5075790;28;20021;-74
2022/04/13 08:53:28;;;;;;;24.20;5.90;;;;;;;;;;5091892;28;20044;-74
2022/04/13 08:55:54;;;;;;;21.25;4.72;;;;;;;;;;5076337;28;20016;-74
2022/04/13 08:58:20;;;;;;;19.73;5.20;;;;;;;;;;5075715;28;20020;-73
2022/04/13 09:00:49;;;;;;;21.35;4.93;;;;;;;;;;5076132;28;20085;-75
2022/04/13 09:03:32;;;;;;;22.90;4.72;;;;;;;;;;5078793;28;20044;-74
2022/04/13 09:05:58;;;;;;;19.20;4.05;;;;;;;;;;5059314;28;20096;-75
2022/04/13 09:08:43;;;;;;;22.88;4.95;;;;;;;;;;5075611;28;20024;-73
2022/04/13 09:11:09;;;;;;;19.48;6.07;;;;;;;;;;5076532;28;20074;-74
2022/04/13 09:13:35;;;;;;;19.27;5.53;;;;;;;;;;5076825;28;20044;-73
2022/04/13 09:16:02;;;;;;;24.00;5.20;;;;;;;;;;5092263;28;20066;-73
2022/04/13 09:18:28;;;;;;;16.85;4.50;;;;;;;;;;5076974;28;20062;-73
2022/04/13 09:20:54;;;;;;;20.45;4.50;;;;;;;;;;5091664;28;20016;-73
2022/04/13 09:23:21;;;;;;;22.48;4.35;;;;;;;;;;5075045;28;20020;-73
2022/04/13 09:25:50;;;;;;;11.98;4.60;;;;;;;;;;5076727;28;20035;-73
2022/04/13 09:28:16;;;;;;;21.05;3.80;;;;;;;;;;5076721;28;20107;-72
2022/04/13 09:30:42;;;;;;;17.80;4.25;;;;;;;;;;5076645;28;20107;-72
2022/04/13 09:33:17;;;;;;;17.90;4.05;;;;;;;;;;5075428;28;20029;-73
2022/04/13 09:35:43;;;;;;;21.60;3.58;;;;;;;;;;5075033;28;20448;-73
2022/04/13 09:38:09;;;;;;;12.32;4.95;;;;;;;;;;5076744;28;20020;-73
2022/04/13 09:40:35;;;;;;;13.70;3.83;;;;;;;;;;5075511;28;20337;-73
2022/04/13 09:43:06;;;;;;;11.20;4.28;;;;;;;;;;5092202;28;20020;-73
2022/04/13 09:45:33;;;;;;;13.95;4.57;;;;;;;;;;5076108;28;20023;-73
2022/04/13 09:48:03;;;;;;;18.52;5.30;;;;;;;;;;5076645;28;20020;-73
2022/04/13 09:50:29;;;;;;;12.93;4.78;;;;;;;;;;5076742;28;20018;-73
2022/04/13 09:52:57;;;;;;;12.68;4.05;;;;;;;;;;5076224;28;20027;-73
2022/04/13 09:55:24;;;;;;;24.85;4.07;;;;;;;;;;5074987;28;20032;-73
2022/04/13 09:57:50;;;;;;;9.68;2.85;;;;;;;;;;5076599;28;20021;-73
2022/04/13 10:00:16;;;;;;;13.15;3.45;;;;;;;;;;5076153;28;20032;-73
2022/04/13 10:02:45;;;;;;;15.15;4.20;;;;;;;;;;5076791;28;20020;-73
2022/04/13 10:05:11;;;;;;;10.57;3.83;;;;;;;;;;5076676;28;20422;-73
2022/04/13 10:07:37;;;;;;;14.13;3.35;;;;;;;;;;5076466;28;20048;-73
2022/04/13 10:10:03;;;;;;;29.10;5.43;;;;;;;;;;5092083;28;20111;-73
2022/04/13 10:12:46;;;;;;;12.43;4.72;;;;;;;;;;5074697;28;20021;-73
2022/04/13 10:15:12;;;;;;;15.05;4.45;;;;;;;;;;5076322;28;20025;-74
2022/04/13 10:17:39;;;;;;;15.45;4.97;;;;;;;;;;5075900;28;20108;-73
2022/04/13 10:20:05;;;;;;;13.50;3.88;;;;;;;;;;5076286;28;20074;-73
2022/04/13 10:22:31;;;;;;;23.08;4.40;;;;;;;;;;5075700;28;20016;-73
2022/04/13 10:25:15;;;;;;;17.00;3.03;;;;;;;;;;5075178;28;20028;-73
2022/04/13 10:27:51;;;;;;;21.63;5.15;;;;;;;;;;5076217;28;20017;-73
2022/04/13 10:30:24;;;;;;;18.95;4.38;;;;;;;;;;5076468;28;20016;-73
2022/04/13 10:32:57;;;;;;;18.25;4.97;;;;;;;;;;5076228;28;20418;-73
2022/04/13 10:35:23;;;;;;;14.90;3.78;;;;;;;;;;5076152;28;20032;-73
2022/04/13 10:37:49;;;;;;;16.77;3.83;;;;;;;;;;5076357;28;20017;-73
2022/04/13 10:40:15;;;;;;;16.08;4.18;;;;;;;;;;5075708;28;20039;-73
2022/04/13 10:42:45;;;;;;;15.40;4.30;;;;;;;;;;5075148;28;20021;-74
2022/04/13 10:45:13;;;;;;;62.25;9.50;;;;;;;;;;5074701;28;20414;-74
2022/04/13 10:47:58;;;;;;;20.17;3.97;;;;;;;;;;5075259;28;20059;-74
2022/04/13 10:50:47;;;;;;;12.43;4.05;;;;;;;;;;5077217;28;20032;-74
2022/04/13 10:53:28;;;;;;;20.25;4.35;;;;;;;;;;5076344;28;20025;-74
2022/04/13 10:55:53;;;;;;;;;;;;;;;;;;5095752;28;20021;-74
2022/04/13 10:58:31;;;;;;;15.38;4.85;;;;;;;;;;5079177;28;19985;-74
2022/04/13 11:01:04;;;;;;;16.27;3.95;;;;;;;;;;5079526;28;20044;-73
2022/04/13 11:03:37;;;;;;;11.82;3.85;;;;;;;;;;5079003;28;20017;-74
2022/04/13 11:06:04;;;;;;;19.95;4.63;;;;;;;;;;5079708;28;20333;-74
2022/04/13 11:08:51;;;;;;;14.07;3.83;;;;;;;;;;5079614;28;20027;-74
2022/04/13 11:11:24;;;;;;;15.90;4.53;;;;;;;;;;5075836;28;20025;-74
2022/04/13 11:13:51;;;;;;;19.88;4.38;;;;;;;;;;5079845;28;20493;-73
2022/04/13 11:16:18;;;;;;;15.45;3.75;;;;;;;;;;5078902;28;20024;-73
2022/04/13 11:19:03;;;;;;;19.98;4.68;;;;;;;;;;5079402;28;20027;-73
2022/04/13 11:21:29;;;;;;;22.80;4.15;;;;;;;;;;5094875;28;20017;-73
2022/04/13 11:23:55;;;;;;;43.28;5.55;;;;;;;;;;5078577;28;20017;-73
2022/04/13 11:26:47;;;;;;;28.52;6.85;;;;;;;;;;5079089;28;20043;-73
2022/04/13 11:29:14;;;;;;;8.43;3.30;;;;;;;;;;5079007;28;20021;-73
2022/04/13 11:31:58;;;;;;;18.55;4.20;;;;;;;;;;5079029;28;20030;-74
2022/04/13 11:34:43;;;;;;;13.82;3.75;;;;;;;;;;5078923;28;20032;-74
2022/04/13 11:37:11;;;;;;;15.52;3.30;;;;;;;;;;5077367;28;20358;-73
2022/04/13 11:39:47;;;;;;;22.10;3.78;;;;;;;;;;5078785;28;20025;-73
2022/04/13 11:42:24;;;;;;;31.67;5.75;;;;;;;;;;5078834;28;20414;-73
2022/04/13 11:44:53;;;;;;;29.65;4.88;;;;;;;;;;5078906;28;20389;-73
2022/04/13 11:47:19;;;;;;;20.75;4.90;;;;;;;;;;5078809;28;20042;-73
2022/04/13 11:49:56;;;;;;;20.85;4.13;;;;;;;;;;5078898;28;20045;-73
2022/04/13 11:52:50;;;;;;;20.23;4.05;;;;;;;;;;5077582;28;20044;-73
2022/04/13 11:55:22;;;;;;;20.52;4.70;;;;;;;;;;5077152;28;20056;-73
2022/04/13 11:57:57;;;;;;;13.23;3.47;;;;;;;;;;5078497;28;20062;-74
2022/04/13 12:00:42;;;;;;;10.10;3.08;;;;;;;;;;5078447;28;20020;-74
2022/04/13 12:03:12;;;;;;;18.13;3.55;;;;;;;;;;5077334;28;20459;-73
2022/04/13 12:05:42;;;;;;;11.18;4.18;;;;;;;;;;5078454;28;20024;-74
2022/04/13 12:08:12;;;;;;;15.15;3.95;;;;;;;;;;5077324;28;20055;-74
2022/04/13 12:10:43;;;;;;;51.25;7.60;;;;;;;;;;5078212;28;20421;-73
2022/04/13 12:13:09;;;;;;;22.63;4.57;;;;;;;;;;5077977;28;20070;-73
2022/04/13 12:15:50;;;;;;;17.85;5.15;;;;;;;;;;5078186;28;20434;-73
2022/04/13 12:18:21;;;;;;;12.32;5.65;;;;;;;;;;5078120;28;20052;-73
2022/04/13 12:20:47;;;;;;;25.15;6.82;;;;;;;;;;5076652;28;20376;-73
2022/04/13 12:23:26;;;;;;;16.98;3.85;;;;;;;;;;5078013;28;20112;-73
2022/04/13 12:25:54;;;;;;;15.65;3.72;;;;;;;;;;5077941;28;20049;-74
2022/04/13 12:28:22;;;;;;;18.73;5.22;;;;;;;;;;5077438;28;20016;-74
2022/04/13 12:30:58;;;;;;;16.45;6.15;;;;;;;;;;5076819;28;20414;-73
2022/04/13 12:33:25;;;;;;;20.40;4.43;;;;;;;;;;5077876;28;20445;-74
2022/04/13 12:35:51;;;;;;;24.83;4.45;;;;;;;;;;5077986;28;20024;-73
2022/04/13 12:38:27;;;;;;;16.00;4.03;;;;;;;;;;5077919;28;20078;-73
2022/04/13 12:41:05;;;;;;;23.67;4.53;;;;;;;;;;5077904;28;20020;-73
2022/04/13 12:43:31;;;;;;;18.25;5.55;;;;;;;;;;5077810;28;20023;-73
2022/04/13 12:45:57;;;;;;;7.28;3.22;;;;;;;;;;5077872;28;20052;-74
2022/04/13 12:48:24;;;;;;;18.80;5.03;;;;;;;;;;5077851;28;20028;-73
2022/04/13 12:51:00;;;;;;;11.48;3.28;;;;;;;;;;5076527;28;20091;-73
2022/04/13 12:53:27;;;;;;;23.80;4.63;;;;;;;;;;5093088;28;20024;-73
2022/04/13 12:55:54;;;;;;;13.27;4.88;;;;;;;;;;5077042;28;20350;-73
2022/04/13 12:58:20;;;;;;;19.27;5.35;;;;;;;;;;5077587;28;20115;-74
2022/04/13 13:00:47;;;;;;;10.50;4.50;;;;;;;;;;5077497;28;20024;-74
2022/04/13 13:03:13;;;;;;;14.32;5.00;;;;;;;;;;5059719;28;20425;-73
2022/04/13 13:05:39;;;;;;;28.60;8.30;;;;;;;;;;5077386;28;20027;-73
2022/04/13 13:08:05;;;;;;;37.33;7.05;;;;;;;;;;5077856;28;20021;-74
2022/04/13 13:10:34;;;;;;;12.60;4.20;;;;;;;;;;5079957;28;20017;-74
2022/04/13 13:13:01;;;;;;;;;;;;;;;;;;5080171;28;20430;-74
2022/04/13 13:15:36;;;;;;;19.85;7.22;;;;;;;;;;5077163;28;19918;-74
2022/04/13 13:18:06;;;;;;;25.35;6.40;;;;;;;;;;5076208;28;20020;-74
2022/04/13 13:20:33;;;;;;;35.83;9.23;;;;;;;;;;5077282;28;20089;-74
2022/04/13 13:22:59;;;;;;;26.83;10.18;;;;;;;;;;5077295;28;20315;-74
2022/04/13 13:25:24;;;;;;;25.92;11.95;;;;;;;;;;5076037;28;20074;-74
2022/04/13 13:27:54;;;;;;;35.15;14.75;;;;;;;;;;5077197;28;20390;-74
2022/04/13 13:30:20;;;;;;;46.53;18.38;;;;;;;;;;5076730;28;20013;-74
2022/04/13 13:32:50;;;;;;;24.15;12.88;;;;;;;;;;5076581;28;20016;-74
2022/04/13 13:35:17;;;;;;;31.25;13.18;;;;;;;;;;5076816;28;20430;-74
2022/04/13 13:37:43;;;;;;;25.25;11.10;;;;;;;;;;5077215;28;20025;-74
2022/04/13 13:40:28;;;;;;;40.30;11.48;;;;;;;;;;5077173;28;20322;-74
2022/04/13 13:42:54;;;;;;;31.65;11.38;;;;;;;;;;5077153;28;20030;-74
2022/04/13 13:45:20;;;;;;;34.13;11.18;;;;;;;;;;5076488;28;20020;-74
2022/04/13 13:47:46;;;;;;;44.60;13.23;;;;;;;;;;5075331;28;20040;-74
2022/04/13 13:50:12;;;;;;;47.35;14.68;;;;;;;;;;5077924;28;20438;-74
2022/04/13 13:52:38;;;;;;;42.88;12.98;;;;;;;;;;5077280;28;20024;-74
2022/04/13 13:55:05;;;;;;;43.88;15.90;;;;;;;;;;5076287;28;20395;-74
2022/04/13 13:57:31;;;;;;;40.35;15.93;;;;;;;;;;5059016;28;20079;-74
2022/04/13 13:59:57;;;;;;;46.38;17.63;;;;;;;;;;5076490;28;20323;-74
2022/04/13 14:02:23;;;;;;;48.67;16.85;;;;;;;;;;5077042;28;20408;-74
2022/04/13 14:04:49;;;;;;;52.00;19.10;;;;;;;;;;5076375;28;20016;-74
2022/04/13 14:07:16;;;;;;;42.83;15.43;;;;;;;;;;5076915;28;20452;-74
2022/04/13 14:09:42;;;;;;;43.50;15.65;;;;;;;;;;5076439;28;20039;-74
2022/04/13 14:12:08;;;;;;;48.00;17.88;;;;;;;;;;5076892;28;20020;-74
2022/04/13 14:14:34;;;;;;;46.70;18.40;;;;;;;;;;5075493;28;20032;-74
2022/04/13 14:17:00;;;;;;;52.85;21.02;;;;;;;;;;5076726;28;20027;-74
2022/04/13 14:19:27;;;;;;;44.30;19.30;;;;;;;;;;5076467;28;20418;-74
2022/04/13 14:21:53;;;;;;;42.78;19.08;;;;;;;;;;5078588;28;20023;-74
2022/04/13 14:24:19;;;;;;;46.58;18.15;;;;;;;;;;5076354;28;20115;-74
2022/04/13 14:26:45;;;;;;;61.40;21.08;;;;;;;;;;5080534;28;20028;-74
2022/04/13 14:29:11;;;;;;;49.85;21.02;;;;;;;;;;5079993;28;20032;-74
2022/04/13 14:31:37;;;;;;;57.97;22.05;;;;;;;;;;5081061;28;20021;-74
2022/04/13 14:34:03;;;;;;;60.80;21.65;;;;;;;;;;5081313;28;20338;-74
2022/04/13 14:36:29;;;;;;;49.50;19.35;;;;;;;;;;5081694;28;20062;-74
2022/04/13 14:38:55;;;;;;;50.28;20.50;;;;;;;;;;5080313;28;20035;-74
2022/04/13 14:41:21;;;;;;;51.88;21.73;;;;;;;;;;5079889;28;20036;-74